sensor_id;sensor_type;location;lat;lon;timestamp;pressure;altitude;pressure_sealevel;temperature;humidity
10518;BME280;5307;42.548;22.968;2023-03-21T00:01:05;93665.63;;;8.85;71.91
10518;BME280;5307;42.548;22.968;2023-03-21T00:03:33;93660.53;;;8.87;72.06
10518;BME280;5307;42.548;22.968;2023-03-21T00:06:04;93665.94;;;8.52;73.03
10518;BME280;5307;42.548;22.968;2023-03-21T00:08:31;93663.78;;;8.47;73.74
10518;BME280;5307;42.548;22.968;2023-03-21T00:11:00;93668.56;;;8.43;74.65
10518;BME280;5307;42.548;22.968;2023-03-21T00:13:28;93661.22;;;8.66;75.14
10518;BME280;5307;42.548;22.968;2023-03-21T00:15:57;93656.81;;;8.46;77.53
10518;BME280;5307;42.548;22.968;2023-03-21T00:18:23;93659.53;;;8.21;78.90
10518;BME280;5307;42.548;22.968;2023-03-21T00:20:59;93659.72;;;8.26;77.05
10518;BME280;5307;42.548;22.968;2023-03-21T00:23:26;93655.50;;;8.51;73.01
10518;BME280;5307;42.548;22.968;2023-03-21T00:25:54;93658.88;;;8.42;77.35
10518;BME280;5307;42.548;22.968;2023-03-21T00:28:21;93662.13;;;8.50;75.88
10518;BME280;5307;42.548;22.968;2023-03-21T00:30:48;93665.28;;;8.23;77.43
10518;BME280;5307;42.548;22.968;2023-03-21T00:33:15;93668.56;;;8.18;77.56
10518;BME280;5307;42.548;22.968;2023-03-21T00:35:45;93673.00;;;8.24;77.73
10518;BME280;5307;42.548;22.968;2023-03-21T00:38:14;93670.72;;;7.85;80.05
10518;BME280;5307;42.548;22.968;2023-03-21T00:40:41;93666.94;;;7.95;79.47
10518;BME280;5307;42.548;22.968;2023-03-21T00:43:08;93666.38;;;8.13;78.12
10518;BME280;5307;42.548;22.968;2023-03-21T00:45:36;93665.19;;;7.88;80.19
10518;BME280;5307;42.548;22.968;2023-03-21T00:48:03;93666.38;;;7.74;79.95
10518;BME280;5307;42.548;22.968;2023-03-21T00:50:30;93665.59;;;7.61;79.38
10518;BME280;5307;42.548;22.968;2023-03-21T00:52:58;93657.03;;;7.88;78.27
10518;BME280;5307;42.548;22.968;2023-03-21T00:55:27;93656.59;;;7.90;79.58
10518;BME280;5307;42.548;22.968;2023-03-21T00:57:53;93654.06;;;7.70;81.18
10518;BME280;5307;42.548;22.968;2023-03-21T01:00:20;93651.25;;;7.73;78.60
10518;BME280;5307;42.548;22.968;2023-03-21T01:02:47;93652.25;;;7.92;78.18
10518;BME280;5307;42.548;22.968;2023-03-21T01:05:22;93648.88;;;7.76;79.16
10518;BME280;5307;42.548;22.968;2023-03-21T01:08:10;93644.72;;;7.84;80.00
10518;BME280;5307;42.548;22.968;2023-03-21T01:10:40;93653.66;;;7.84;80.05
10518;BME280;5307;42.548;22.968;2023-03-21T01:13:08;93649.41;;;7.70;81.49
10518;BME280;5307;42.548;22.968;2023-03-21T01:15:36;93655.38;;;7.65;81.09
10518;BME280;5307;42.548;22.968;2023-03-21T01:18:08;93655.59;;;7.84;80.76
10518;BME280;5307;42.548;22.968;2023-03-21T01:20:34;93655.16;;;7.72;81.29
10518;BME280;5307;42.548;22.968;2023-03-21T01:23:01;93653.63;;;7.71;81.33
10518;BME280;5307;42.548;22.968;2023-03-21T01:25:28;93655.56;;;7.58;82.55
10518;BME280;5307;42.548;22.968;2023-03-21T01:27:56;93658.75;;;7.69;82.49
10518;BME280;5307;42.548;22.968;2023-03-21T01:30:23;93632.28;;;7.44;81.86
10518;BME280;5307;42.548;22.968;2023-03-21T01:32:50;93648.19;;;7.46;82.84
10518;BME280;5307;42.548;22.968;2023-03-21T01:35:17;93638.28;;;7.39;84.44
10518;BME280;5307;42.548;22.968;2023-03-21T01:37:44;93646.34;;;7.56;84.69
10518;BME280;5307;42.548;22.968;2023-03-21T01:40:15;93647.63;;;7.38;86.24
10518;BME280;5307;42.548;22.968;2023-03-21T01:42:42;93652.84;;;7.45;86.18
10518;BME280;5307;42.548;22.968;2023-03-21T01:48:12;93635.13;;;7.41;86.27
10518;BME280;5307;42.548;22.968;2023-03-21T01:50:39;93633.06;;;7.32;85.50
10518;BME280;5307;42.548;22.968;2023-03-21T01:53:08;93636.41;;;7.36;85.46
10518;BME280;5307;42.548;22.968;2023-03-21T01:55:36;93639.03;;;7.40;86.43
10518;BME280;5307;42.548;22.968;2023-03-21T01:58:05;93645.25;;;7.11;87.76
10518;BME280;5307;42.548;22.968;2023-03-21T02:00:35;93637.06;;;6.99;88.29
10518;BME280;5307;42.548;22.968;2023-03-21T02:03:04;93633.22;;;6.83;89.62
10518;BME280;5307;42.548;22.968;2023-03-21T02:05:38;93624.88;;;7.20;87.98
10518;BME280;5307;42.548;22.968;2023-03-21T02:08:06;93645.38;;;7.08;88.23
10518;BME280;5307;42.548;22.968;2023-03-21T02:10:33;93640.00;;;6.92;88.08
10518;BME280;5307;42.548;22.968;2023-03-21T02:13:03;93632.78;;;6.85;88.52
10518;BME280;5307;42.548;22.968;2023-03-21T02:15:34;93641.50;;;6.47;89.43
10518;BME280;5307;42.548;22.968;2023-03-21T02:18:07;93640.69;;;6.79;89.46
10518;BME280;5307;42.548;22.968;2023-03-21T02:20:50;93646.22;;;6.76;88.92
10518;BME280;5307;42.548;22.968;2023-03-21T02:26:43;93651.31;;;6.58;90.41
10518;BME280;5307;42.548;22.968;2023-03-21T02:29:27;93656.94;;;6.50;91.18
10518;BME280;5307;42.548;22.968;2023-03-21T02:32:06;93650.84;;;6.14;90.87
10518;BME280;5307;42.548;22.968;2023-03-21T02:34:50;93649.28;;;6.45;90.74
10518;BME280;5307;42.548;22.968;2023-03-21T02:37:25;93647.25;;;6.66;88.67
10518;BME280;5307;42.548;22.968;2023-03-21T02:40:05;93648.41;;;6.81;87.74
10518;BME280;5307;42.548;22.968;2023-03-21T02:42:43;93644.16;;;6.80;88.43
10518;BME280;5307;42.548;22.968;2023-03-21T02:45:17;93652.34;;;6.64;89.49
10518;BME280;5307;42.548;22.968;2023-03-21T02:47:47;93649.81;;;6.57;90.93
10518;BME280;5307;42.548;22.968;2023-03-21T02:50:20;93651.16;;;6.65;89.47
10518;BME280;5307;42.548;22.968;2023-03-21T02:52:51;93645.00;;;6.48;89.90
10518;BME280;5307;42.548;22.968;2023-03-21T02:55:22;93648.50;;;6.61;89.99
10518;BME280;5307;42.548;22.968;2023-03-21T02:57:52;93649.31;;;6.62;89.95
10518;BME280;5307;42.548;22.968;2023-03-21T03:00:21;93649.31;;;6.62;89.48
10518;BME280;5307;42.548;22.968;2023-03-21T03:02:49;93632.69;;;6.43;90.21
10518;BME280;5307;42.548;22.968;2023-03-21T03:05:18;93635.59;;;6.36;90.86
10518;BME280;5307;42.548;22.968;2023-03-21T03:07:58;93639.13;;;6.66;90.24
10518;BME280;5307;42.548;22.968;2023-03-21T03:10:44;93637.75;;;6.58;90.09
10518;BME280;5307;42.548;22.968;2023-03-21T03:13:24;93640.22;;;6.68;90.18
10518;BME280;5307;42.548;22.968;2023-03-21T03:16:03;93644.22;;;6.64;89.38
10518;BME280;5307;42.548;22.968;2023-03-21T03:18:40;93642.97;;;6.36;91.26
10518;BME280;5307;42.548;22.968;2023-03-21T03:21:18;93640.81;;;6.43;91.09
10518;BME280;5307;42.548;22.968;2023-03-21T03:23:50;93635.50;;;6.40;91.71
10518;BME280;5307;42.548;22.968;2023-03-21T03:26:23;93651.13;;;6.19;92.20
10518;BME280;5307;42.548;22.968;2023-03-21T03:28:52;93642.53;;;6.05;92.73
10518;BME280;5307;42.548;22.968;2023-03-21T03:31:24;93657.44;;;6.29;92.38
10518;BME280;5307;42.548;22.968;2023-03-21T03:33:54;93647.97;;;6.37;92.05
10518;BME280;5307;42.548;22.968;2023-03-21T03:36:24;93650.69;;;6.21;92.89
10518;BME280;5307;42.548;22.968;2023-03-21T03:38:56;93643.72;;;6.36;93.18
10518;BME280;5307;42.548;22.968;2023-03-21T03:41:25;93627.72;;;6.25;93.93
10518;BME280;5307;42.548;22.968;2023-03-21T03:43:55;93644.31;;;6.11;93.91
10518;BME280;5307;42.548;22.968;2023-03-21T03:46:27;93642.03;;;5.93;94.40
10518;BME280;5307;42.548;22.968;2023-03-21T03:48:59;93637.47;;;6.07;94.57
10518;BME280;5307;42.548;22.968;2023-03-21T03:51:31;93639.44;;;5.70;94.76
10518;BME280;5307;42.548;22.968;2023-03-21T03:54:03;93646.09;;;5.49;97.10
10518;BME280;5307;42.548;22.968;2023-03-21T03:56:31;93633.47;;;5.95;96.10
10518;BME280;5307;42.548;22.968;2023-03-21T03:59:00;93621.56;;;5.89;95.43
10518;BME280;5307;42.548;22.968;2023-03-21T04:01:29;93624.59;;;5.75;95.00
10518;BME280;5307;42.548;22.968;2023-03-21T04:03:55;93624.13;;;5.80;95.64
10518;BME280;5307;42.548;22.968;2023-03-21T04:06:22;93614.72;;;5.68;95.96
10518;BME280;5307;42.548;22.968;2023-03-21T04:08:49;93620.56;;;5.83;96.15
10518;BME280;5307;42.548;22.968;2023-03-21T04:11:17;93620.44;;;6.06;95.25
10518;BME280;5307;42.548;22.968;2023-03-21T04:13:44;93625.00;;;5.93;94.41
10518;BME280;5307;42.548;22.968;2023-03-21T04:16:11;93633.44;;;5.79;95.39
10518;BME280;5307;42.548;22.968;2023-03-21T04:18:38;93629.78;;;5.85;96.04
10518;BME280;5307;42.548;22.968;2023-03-21T04:21:08;93621.25;;;5.87;95.96
10518;BME280;5307;42.548;22.968;2023-03-21T04:23:35;93631.19;;;5.93;96.23
10518;BME280;5307;42.548;22.968;2023-03-21T04:26:03;93632.41;;;5.89;95.45
10518;BME280;5307;42.548;22.968;2023-03-21T04:28:31;93633.88;;;5.77;95.94
10518;BME280;5307;42.548;22.968;2023-03-21T04:31:00;93636.81;;;5.83;97.10
10518;BME280;5307;42.548;22.968;2023-03-21T04:33:28;93643.47;;;5.62;96.80
10518;BME280;5307;42.548;22.968;2023-03-21T04:35:54;93642.78;;;5.58;97.24
10518;BME280;5307;42.548;22.968;2023-03-21T04:38:24;93656.63;;;5.63;97.95
10518;BME280;5307;42.548;22.968;2023-03-21T04:40:55;93647.34;;;5.61;98.05
10518;BME280;5307;42.548;22.968;2023-03-21T04:43:21;93648.31;;;5.71;98.22
10518;BME280;5307;42.548;22.968;2023-03-21T04:45:50;93651.84;;;5.51;98.17
10518;BME280;5307;42.548;22.968;2023-03-21T04:48:17;93644.00;;;5.73;97.32
10518;BME280;5307;42.548;22.968;2023-03-21T04:50:44;93647.97;;;5.69;98.17
10518;BME280;5307;42.548;22.968;2023-03-21T04:53:10;93655.31;;;5.52;98.30
10518;BME280;5307;42.548;22.968;2023-03-21T04:55:38;93655.94;;;5.76;98.65
10518;BME280;5307;42.548;22.968;2023-03-21T04:58:05;93660.13;;;5.80;98.67
10518;BME280;5307;42.548;22.968;2023-03-21T05:00:32;93659.81;;;5.75;98.22
10518;BME280;5307;42.548;22.968;2023-03-21T05:03:03;93663.56;;;5.64;98.62
10518;BME280;5307;42.548;22.968;2023-03-21T05:05:34;93657.53;;;5.73;98.57
10518;BME280;5307;42.548;22.968;2023-03-21T05:08:01;93654.81;;;5.93;97.83
10518;BME280;5307;42.548;22.968;2023-03-21T05:10:28;93654.22;;;6.02;97.94
10518;BME280;5307;42.548;22.968;2023-03-21T05:12:55;93646.81;;;5.86;98.43
10518;BME280;5307;42.548;22.968;2023-03-21T05:15:21;93651.50;;;6.02;99.20
10518;BME280;5307;42.548;22.968;2023-03-21T05:17:48;93655.94;;;6.12;98.89
10518;BME280;5307;42.548;22.968;2023-03-21T05:20:17;93654.06;;;6.25;98.35
10518;BME280;5307;42.548;22.968;2023-03-21T05:22:44;93662.72;;;6.36;96.75
10518;BME280;5307;42.548;22.968;2023-03-21T05:25:14;93654.38;;;6.43;97.34
10518;BME280;5307;42.548;22.968;2023-03-21T05:27:42;93647.78;;;6.44;96.92
10518;BME280;5307;42.548;22.968;2023-03-21T05:30:12;93650.50;;;6.44;96.74
10518;BME280;5307;42.548;22.968;2023-03-21T05:32:39;93650.47;;;6.61;96.72
10518;BME280;5307;42.548;22.968;2023-03-21T05:35:07;93640.22;;;6.68;97.21
10518;BME280;5307;42.548;22.968;2023-03-21T05:37:35;93650.78;;;6.79;96.37
10518;BME280;5307;42.548;22.968;2023-03-21T05:40:03;93639.63;;;6.90;96.29
10518;BME280;5307;42.548;22.968;2023-03-21T05:42:31;93639.06;;;6.82;95.63
10518;BME280;5307;42.548;22.968;2023-03-21T05:44:58;93635.00;;;6.90;93.92
10518;BME280;5307;42.548;22.968;2023-03-21T05:47:25;93622.56;;;7.05;93.87
10518;BME280;5307;42.548;22.968;2023-03-21T05:49:52;93623.53;;;7.11;91.97
10518;BME280;5307;42.548;22.968;2023-03-21T05:52:19;93622.06;;;7.23;92.95
10518;BME280;5307;42.548;22.968;2023-03-21T05:54:47;93628.38;;;7.33;91.82
10518;BME280;5307;42.548;22.968;2023-03-21T05:57:14;93620.56;;;7.35;91.75
10518;BME280;5307;42.548;22.968;2023-03-21T05:59:43;93624.78;;;7.36;90.60
10518;BME280;5307;42.548;22.968;2023-03-21T06:02:10;93621.88;;;7.56;89.70
10518;BME280;5307;42.548;22.968;2023-03-21T06:04:37;93616.47;;;7.68;89.14
10518;BME280;5307;42.548;22.968;2023-03-21T06:07:03;93616.78;;;7.83;89.30
10518;BME280;5307;42.548;22.968;2023-03-21T06:09:30;93618.53;;;7.77;87.26
10518;BME280;5307;42.548;22.968;2023-03-21T06:11:59;93618.31;;;7.84;86.12
10518;BME280;5307;42.548;22.968;2023-03-21T06:14:26;93620.91;;;8.00;85.12
10518;BME280;5307;42.548;22.968;2023-03-21T06:16:53;93622.09;;;8.12;84.05
10518;BME280;5307;42.548;22.968;2023-03-21T06:19:20;93624.50;;;8.36;83.75
10518;BME280;5307;42.548;22.968;2023-03-21T06:21:47;93622.81;;;8.63;81.56
10518;BME280;5307;42.548;22.968;2023-03-21T06:24:14;93626.75;;;8.84;79.68
10518;BME280;5307;42.548;22.968;2023-03-21T06:26:42;93630.19;;;8.98;78.34
10518;BME280;5307;42.548;22.968;2023-03-21T06:29:10;93620.19;;;8.95;77.45
10518;BME280;5307;42.548;22.968;2023-03-21T06:31:37;93630.66;;;9.18;77.68
10518;BME280;5307;42.548;22.968;2023-03-21T06:34:04;93622.34;;;9.00;77.94
10518;BME280;5307;42.548;22.968;2023-03-21T06:36:31;93621.38;;;8.93;78.23
10518;BME280;5307;42.548;22.968;2023-03-21T06:38:58;93622.81;;;8.85;79.09
10518;BME280;5307;42.548;22.968;2023-03-21T06:41:24;93626.25;;;8.77;79.95
10518;BME280;5307;42.548;22.968;2023-03-21T06:43:51;93625.50;;;8.76;82.48
10518;BME280;5307;42.548;22.968;2023-03-21T06:46:20;93624.81;;;8.72;82.38
10518;BME280;5307;42.548;22.968;2023-03-21T06:48:46;93619.56;;;8.90;82.88
10518;BME280;5307;42.548;22.968;2023-03-21T06:51:14;93613.75;;;9.01;81.84
10518;BME280;5307;42.548;22.968;2023-03-21T06:53:41;93626.97;;;9.12;81.65
10518;BME280;5307;42.548;22.968;2023-03-21T06:56:11;93630.50;;;9.00;81.29
10518;BME280;5307;42.548;22.968;2023-03-21T06:58:39;93625.06;;;9.21;81.05
10518;BME280;5307;42.548;22.968;2023-03-21T07:01:06;93631.84;;;9.39;80.09
10518;BME280;5307;42.548;22.968;2023-03-21T07:03:35;93632.03;;;9.44;78.66
10518;BME280;5307;42.548;22.968;2023-03-21T07:06:07;93634.28;;;9.68;75.89
10518;BME280;5307;42.548;22.968;2023-03-21T07:08:36;93630.03;;;9.67;74.42
10518;BME280;5307;42.548;22.968;2023-03-21T07:11:03;93634.03;;;9.75;74.34
10518;BME280;5307;42.548;22.968;2023-03-21T07:13:30;93642.34;;;9.71;73.35
10518;BME280;5307;42.548;22.968;2023-03-21T07:15:57;93639.25;;;9.60;73.40
10518;BME280;5307;42.548;22.968;2023-03-21T07:18:24;93636.47;;;9.82;74.01
10518;BME280;5307;42.548;22.968;2023-03-21T07:20:53;93633.13;;;9.78;74.18
10518;BME280;5307;42.548;22.968;2023-03-21T07:23:21;93647.59;;;9.88;75.89
10518;BME280;5307;42.548;22.968;2023-03-21T07:25:50;93643.34;;;9.87;75.18
10518;BME280;5307;42.548;22.968;2023-03-21T07:28:17;93641.84;;;9.95;74.47
10518;BME280;5307;42.548;22.968;2023-03-21T07:30:44;93630.22;;;10.12;73.69
10518;BME280;5307;42.548;22.968;2023-03-21T07:33:11;93625.78;;;10.37;72.06
10518;BME280;5307;42.548;22.968;2023-03-21T07:35:38;93624.63;;;10.47;72.26
10518;BME280;5307;42.548;22.968;2023-03-21T07:38:06;93630.84;;;10.48;73.94
10518;BME280;5307;42.548;22.968;2023-03-21T07:40:33;93634.28;;;10.39;72.04
10518;BME280;5307;42.548;22.968;2023-03-21T07:43:00;93630.88;;;10.57;72.08
10518;BME280;5307;42.548;22.968;2023-03-21T07:45:27;93634.94;;;10.43;71.36
10518;BME280;5307;42.548;22.968;2023-03-21T07:47:54;93632.84;;;10.56;71.02
10518;BME280;5307;42.548;22.968;2023-03-21T07:50:20;93634.81;;;10.65;71.20
10518;BME280;5307;42.548;22.968;2023-03-21T07:52:47;93630.56;;;10.73;72.15
10518;BME280;5307;42.548;22.968;2023-03-21T07:55:16;93627.69;;;10.77;71.93
10518;BME280;5307;42.548;22.968;2023-03-21T07:57:43;93616.31;;;10.96;71.18
10518;BME280;5307;42.548;22.968;2023-03-21T08:00:13;93615.38;;;11.36;69.19
10518;BME280;5307;42.548;22.968;2023-03-21T08:02:48;93613.06;;;11.62;67.02
10518;BME280;5307;42.548;22.968;2023-03-21T08:05:19;93602.25;;;11.68;66.21
10518;BME280;5307;42.548;22.968;2023-03-21T08:07:46;93608.47;;;11.68;65.17
10518;BME280;5307;42.548;22.968;2023-03-21T08:10:13;93609.97;;;11.87;65.61
10518;BME280;5307;42.548;22.968;2023-03-21T08:12:41;93610.44;;;11.86;64.90
10518;BME280;5307;42.548;22.968;2023-03-21T08:15:09;93606.03;;;11.88;64.23
10518;BME280;5307;42.548;22.968;2023-03-21T08:17:36;93606.16;;;11.94;63.75
10518;BME280;5307;42.548;22.968;2023-03-21T08:20:06;93602.81;;;11.90;63.77
10518;BME280;5307;42.548;22.968;2023-03-21T08:22:33;93600.66;;;11.94;63.69
10518;BME280;5307;42.548;22.968;2023-03-21T08:25:01;93609.63;;;11.95;61.62
10518;BME280;5307;42.548;22.968;2023-03-21T08:27:29;93608.59;;;11.92;62.76
10518;BME280;5307;42.548;22.968;2023-03-21T08:29:58;93609.69;;;11.85;62.40
10518;BME280;5307;42.548;22.968;2023-03-21T08:32:25;93613.34;;;11.82;62.67
10518;BME280;5307;42.548;22.968;2023-03-21T08:34:54;93617.25;;;12.00;60.64
10518;BME280;5307;42.548;22.968;2023-03-21T08:37:22;93606.44;;;11.96;62.46
10518;BME280;5307;42.548;22.968;2023-03-21T08:39:49;93601.78;;;11.87;62.20
10518;BME280;5307;42.548;22.968;2023-03-21T08:42:17;93607.81;;;12.01;61.23
10518;BME280;5307;42.548;22.968;2023-03-21T08:44:45;93619.81;;;12.03;61.98
10518;BME280;5307;42.548;22.968;2023-03-21T08:47:13;93598.97;;;12.06;61.96
10518;BME280;5307;42.548;22.968;2023-03-21T08:49:40;93601.09;;;12.11;62.56
10518;BME280;5307;42.548;22.968;2023-03-21T08:52:10;93592.47;;;12.27;62.46
10518;BME280;5307;42.548;22.968;2023-03-21T08:54:36;93582.19;;;12.46;62.11
10518;BME280;5307;42.548;22.968;2023-03-21T08:57:05;93578.78;;;12.51;61.61
10518;BME280;5307;42.548;22.968;2023-03-21T08:59:32;93581.94;;;12.59;59.91
10518;BME280;5307;42.548;22.968;2023-03-21T09:01:59;93577.00;;;12.72;59.63
10518;BME280;5307;42.548;22.968;2023-03-21T09:04:28;93575.28;;;12.74;58.09
10518;BME280;5307;42.548;22.968;2023-03-21T09:06:55;93571.22;;;12.70;60.03
10518;BME280;5307;42.548;22.968;2023-03-21T09:09:22;93567.63;;;12.78;58.90
10518;BME280;5307;42.548;22.968;2023-03-21T09:11:49;93564.56;;;12.86;58.46
10518;BME280;5307;42.548;22.968;2023-03-21T09:14:16;93566.63;;;12.91;59.37
10518;BME280;5307;42.548;22.968;2023-03-21T09:16:42;93560.69;;;12.92;57.59
10518;BME280;5307;42.548;22.968;2023-03-21T09:19:09;93560.06;;;12.97;58.02
10518;BME280;5307;42.548;22.968;2023-03-21T09:21:38;93558.13;;;12.89;57.77
10518;BME280;5307;42.548;22.968;2023-03-21T09:24:06;93564.03;;;12.96;57.14
10518;BME280;5307;42.548;22.968;2023-03-21T09:26:33;93560.06;;;12.97;56.03
10518;BME280;5307;42.548;22.968;2023-03-21T09:29:00;93561.66;;;13.04;57.74
10518;BME280;5307;42.548;22.968;2023-03-21T09:31:29;93563.75;;;13.09;58.20
10518;BME280;5307;42.548;22.968;2023-03-21T09:33:55;93560.47;;;13.20;58.22
10518;BME280;5307;42.548;22.968;2023-03-21T09:36:23;93555.31;;;13.51;58.36
10518;BME280;5307;42.548;22.968;2023-03-21T09:38:53;93534.16;;;13.87;57.63
10518;BME280;5307;42.548;22.968;2023-03-21T09:41:33;93530.97;;;14.23;57.50
10518;BME280;5307;42.548;22.968;2023-03-21T09:44:14;93525.91;;;14.37;54.52
10518;BME280;5307;42.548;22.968;2023-03-21T09:46:50;93518.09;;;14.15;51.96
10518;BME280;5307;42.548;22.968;2023-03-21T09:49:21;93510.28;;;14.28;55.88
10518;BME280;5307;42.548;22.968;2023-03-21T09:51:51;93513.91;;;14.19;55.29
10518;BME280;5307;42.548;22.968;2023-03-21T09:54:24;93522.47;;;14.42;50.76
10518;BME280;5307;42.548;22.968;2023-03-21T09:56:53;93518.97;;;14.62;51.29
10518;BME280;5307;42.548;22.968;2023-03-21T09:59:25;93525.78;;;14.66;51.68
10518;BME280;5307;42.548;22.968;2023-03-21T10:01:54;93527.31;;;14.67;49.20
10518;BME280;5307;42.548;22.968;2023-03-21T10:04:22;93520.28;;;14.66;47.73
10518;BME280;5307;42.548;22.968;2023-03-21T10:06:55;93518.22;;;14.61;46.59
10518;BME280;5307;42.548;22.968;2023-03-21T10:09:26;93515.59;;;14.93;49.18
10518;BME280;5307;42.548;22.968;2023-03-21T10:11:56;93524.34;;;15.17;46.99
10518;BME280;5307;42.548;22.968;2023-03-21T10:14:27;93530.16;;;14.99;46.42
10518;BME280;5307;42.548;22.968;2023-03-21T10:16:56;93521.50;;;14.85;46.01
10518;BME280;5307;42.548;22.968;2023-03-21T10:19:26;93513.53;;;14.88;46.58
10518;BME280;5307;42.548;22.968;2023-03-21T10:21:54;93514.28;;;15.34;49.33
10518;BME280;5307;42.548;22.968;2023-03-21T10:24:22;93511.06;;;15.41;46.80
10518;BME280;5307;42.548;22.968;2023-03-21T10:26:52;93513.97;;;15.32;45.19
10518;BME280;5307;42.548;22.968;2023-03-21T10:29:22;93508.16;;;15.25;46.35
10518;BME280;5307;42.548;22.968;2023-03-21T10:31:52;93503.69;;;15.27;44.12
10518;BME280;5307;42.548;22.968;2023-03-21T10:34:26;93500.13;;;16.10;46.41
10518;BME280;5307;42.548;22.968;2023-03-21T10:36:54;93483.25;;;16.45;45.19
10518;BME280;5307;42.548;22.968;2023-03-21T10:39:25;93482.16;;;16.20;43.25
10518;BME280;5307;42.548;22.968;2023-03-21T10:41:54;93493.34;;;16.06;43.78
10518;BME280;5307;42.548;22.968;2023-03-21T10:44:27;93478.47;;;15.60;43.16
10518;BME280;5307;42.548;22.968;2023-03-21T10:47:03;93489.34;;;15.75;43.38
10518;BME280;5307;42.548;22.968;2023-03-21T10:49:30;93492.44;;;16.25;44.75
10518;BME280;5307;42.548;22.968;2023-03-21T10:51:58;93492.94;;;16.29;44.09
10518;BME280;5307;42.548;22.968;2023-03-21T10:54:28;93488.06;;;16.50;45.32
10518;BME280;5307;42.548;22.968;2023-03-21T10:57:02;93477.84;;;16.14;42.86
10518;BME280;5307;42.548;22.968;2023-03-21T10:59:35;93484.50;;;15.96;42.56
10518;BME280;5307;42.548;22.968;2023-03-21T11:02:05;93474.56;;;16.10;42.96
10518;BME280;5307;42.548;22.968;2023-03-21T11:04:32;93467.72;;;16.42;43.03
10518;BME280;5307;42.548;22.968;2023-03-21T11:07:02;93471.25;;;16.48;43.05
10518;BME280;5307;42.548;22.968;2023-03-21T11:09:44;93452.63;;;16.32;42.64
10518;BME280;5307;42.548;22.968;2023-03-21T11:12:14;93455.59;;;16.23;41.78
10518;BME280;5307;42.548;22.968;2023-03-21T11:14:43;93452.78;;;16.66;42.81
10518;BME280;5307;42.548;22.968;2023-03-21T11:17:21;93450.31;;;16.73;42.57
10518;BME280;5307;42.548;22.968;2023-03-21T11:19:50;93454.28;;;16.67;43.40
10518;BME280;5307;42.548;22.968;2023-03-21T11:22:18;93449.72;;;16.52;43.78
10518;BME280;5307;42.548;22.968;2023-03-21T11:24:48;93452.38;;;16.30;42.17
10518;BME280;5307;42.548;22.968;2023-03-21T11:27:17;93454.22;;;16.01;42.83
10518;BME280;5307;42.548;22.968;2023-03-21T11:29:46;93449.94;;;15.95;44.14
10518;BME280;5307;42.548;22.968;2023-03-21T11:32:20;93443.00;;;16.11;43.76
10518;BME280;5307;42.548;22.968;2023-03-21T11:34:49;93439.41;;;15.93;42.34
10518;BME280;5307;42.548;22.968;2023-03-21T11:37:20;93438.69;;;15.98;43.06
10518;BME280;5307;42.548;22.968;2023-03-21T11:39:47;93433.34;;;15.84;42.21
10518;BME280;5307;42.548;22.968;2023-03-21T11:42:29;93441.00;;;16.06;44.81
10518;BME280;5307;42.548;22.968;2023-03-21T11:45:00;93430.69;;;16.00;43.86
10518;BME280;5307;42.548;22.968;2023-03-21T11:47:28;93430.09;;;15.85;42.64
10518;BME280;5307;42.548;22.968;2023-03-21T11:49:56;93424.34;;;15.83;42.81
10518;BME280;5307;42.548;22.968;2023-03-21T11:52:30;93419.75;;;15.69;42.97
10518;BME280;5307;42.548;22.968;2023-03-21T11:55:30;93419.34;;;15.87;44.41
10518;BME280;5307;42.548;22.968;2023-03-21T11:58:08;93413.84;;;15.87;46.03
10518;BME280;5307;42.548;22.968;2023-03-21T12:00:43;93406.75;;;15.75;45.52
10518;BME280;5307;42.548;22.968;2023-03-21T12:06:20;93405.03;;;15.78;45.16
10518;BME280;5307;42.548;22.968;2023-03-21T12:08:59;93402.00;;;15.76;43.69
10518;BME280;5307;42.548;22.968;2023-03-21T12:11:37;93407.75;;;15.72;47.64
10518;BME280;5307;42.548;22.968;2023-03-21T12:14:17;93398.50;;;15.75;44.27
10518;BME280;5307;42.548;22.968;2023-03-21T12:16:55;93400.31;;;15.89;44.62
10518;BME280;5307;42.548;22.968;2023-03-21T12:19:43;93396.50;;;15.76;43.85
10518;BME280;5307;42.548;22.968;2023-03-21T12:22:23;93392.78;;;15.79;44.16
10518;BME280;5307;42.548;22.968;2023-03-21T12:24:55;93391.22;;;15.72;44.28
10518;BME280;5307;42.548;22.968;2023-03-21T12:27:29;93395.53;;;15.79;44.50
10518;BME280;5307;42.548;22.968;2023-03-21T12:30:22;93399.47;;;15.72;43.81
10518;BME280;5307;42.548;22.968;2023-03-21T12:33:04;93393.72;;;15.70;43.59
10518;BME280;5307;42.548;22.968;2023-03-21T12:35:59;93384.97;;;15.71;43.33
10518;BME280;5307;42.548;22.968;2023-03-21T12:38:37;93387.22;;;15.73;43.21
10518;BME280;5307;42.548;22.968;2023-03-21T12:41:15;93386.22;;;15.76;43.42
10518;BME280;5307;42.548;22.968;2023-03-21T12:43:48;93373.19;;;15.71;43.20
10518;BME280;5307;42.548;22.968;2023-03-21T12:46:23;93377.50;;;15.78;44.36
10518;BME280;5307;42.548;22.968;2023-03-21T12:48:55;93376.22;;;15.73;44.51
10518;BME280;5307;42.548;22.968;2023-03-21T12:51:28;93375.75;;;15.80;44.25
10518;BME280;5307;42.548;22.968;2023-03-21T12:54:02;93366.44;;;15.72;44.91
10518;BME280;5307;42.548;22.968;2023-03-21T12:56:34;93370.94;;;15.69;47.17
10518;BME280;5307;42.548;22.968;2023-03-21T12:59:11;93362.66;;;15.64;44.78
10518;BME280;5307;42.548;22.968;2023-03-21T13:01:43;93360.31;;;15.51;44.22
10518;BME280;5307;42.548;22.968;2023-03-21T13:04:31;93357.81;;;15.53;45.50
10518;BME280;5307;42.548;22.968;2023-03-21T13:07:02;93352.00;;;15.45;45.31
10518;BME280;5307;42.548;22.968;2023-03-21T13:09:34;93357.56;;;15.51;46.10
10518;BME280;5307;42.548;22.968;2023-03-21T13:12:08;93352.97;;;15.42;45.20
10518;BME280;5307;42.548;22.968;2023-03-21T13:14:43;93334.38;;;15.26;44.22
10518;BME280;5307;42.548;22.968;2023-03-21T13:17:21;93347.13;;;15.29;44.40
10518;BME280;5307;42.548;22.968;2023-03-21T13:19:55;93340.13;;;15.28;45.43
10518;BME280;5307;42.548;22.968;2023-03-21T13:22:27;93349.88;;;15.29;47.08
10518;BME280;5307;42.548;22.968;2023-03-21T13:24:57;93343.88;;;15.25;45.65
10518;BME280;5307;42.548;22.968;2023-03-21T13:27:27;93341.84;;;15.20;46.51
10518;BME280;5307;42.548;22.968;2023-03-21T13:29:58;93349.06;;;15.18;45.96